Weather reports worldwide

Advertisment
Otranto, Italy (16334): temperature & dewpoint: 10.09.2019 17:00:00 - 16.09.2019 17:00:00 (CEST)Otranto, Italy (16334): wind speed: 10.09.2019 17:00:00 - 16.09.2019 17:00:00 (CEST)Otranto, Italy (16334): wind direction: 10.09.2019 17:00:00 - 16.09.2019 17:00:00 (CEST)Otranto, Italy (16334): reduced air pressure: 10.09.2019 17:00:00 - 16.09.2019 17:00:00 (CEST)Otranto, Italy (16334): precipitation: 10.09.2019 17:00:00 - 16.09.2019 17:00:00 (CEST)
Date & Time tt [°C] td [°C] ff [km/h] ff [kn] dd ppp [hPa] rr [mm]
16.09.2019 17:00:00 - - - - - - -
16.09.2019 16:00:00 25,6 24,9 16 9 N 1016,8 -
16.09.2019 15:00:00 25,9 24,3 16 9 N 1017,2 -
16.09.2019 14:00:00 25,9 25,2 18 10 NNE 1017,7 -
16.09.2019 13:00:00 25,8 25,2 18 10 NE 1018,5 -
16.09.2019 12:00:00 25,4 25,3 18 10 NNE 1018,8 -
16.09.2019 11:00:00 25,1 24,9 16 9 NNE 1019,1 -
16.09.2019 10:00:00 24,6 24,5 16 9 N 1018,9 -
16.09.2019 09:00:00 22,9 22,8 13 7 NNW 1018,8 -
16.09.2019 08:00:00 20,7 20,6 11 6 NNW 1018,7 -
16.09.2019 07:00:00 19,6 19,5 11 6 NW 1018,8 -
16.09.2019 06:00:00 19,9 19,8 11 6 NNW 1018,8 -
16.09.2019 05:00:00 19,6 19,5 11 6 NNW 1019,0 -
16.09.2019 04:00:00 19,8 19,7 11 6 NNW 1019,4 -
16.09.2019 03:00:00 20,1 20,0 9 5 NW 1019,8 -
16.09.2019 02:00:00 20,4 20,3 9 5 NW 1020,1 -
16.09.2019 01:00:00 20,5 20,4 9 5 NNW 1020,0 -
16.09.2019 00:00:00 22,8 22,7 13 7 N 1020,0 -
15.09.2019 23:00:00 22,4 22,3 11 6 N 1020,4 -
15.09.2019 22:00:00 23,2 23,1 13 7 N 1020,6 -
15.09.2019 21:00:00 23,4 23,3 15 8 N 1020,6 -
15.09.2019 20:00:00 23,5 23,4 15 8 N 1020,3 -
15.09.2019 19:00:00 24,1 22,5 15 8 N 1020,3 -
15.09.2019 18:00:00 25,3 23,7 21 11 N 1020,6 -
15.09.2019 17:00:00 26,2 24,4 18 10 N 1020,5 -
15.09.2019 16:00:00 26,7 25,4 15 8 N 1020,8 -
15.09.2019 15:00:00 27,0 25,4 13 7 NNW 1021,2 -
15.09.2019 14:00:00 27,1 25,5 11 6 NNE 1021,6 -
15.09.2019 13:00:00 27,1 25,9 11 6 NNE 1021,9 -
15.09.2019 12:00:00 26,1 24,5 13 7 N 1022,1 -
15.09.2019 11:00:00 26,0 24,0 13 7 N 1022,3 -
15.09.2019 10:00:00 25,7 24,1 15 8 N 1021,9 -
15.09.2019 09:00:00 24,7 23,1 15 8 N 1021,8 -
15.09.2019 08:00:00 23,2 23,1 15 8 NNE 1021,1 -
15.09.2019 07:00:00 21,9 21,8 13 7 N 1021,0 -
15.09.2019 06:00:00 21,3 21,2 15 8 NNW 1020,6 -
15.09.2019 05:00:00 21,8 21,7 16 9 N 1020,4 -
15.09.2019 04:00:00 22,4 22,3 16 9 NNW 1020,3 -
15.09.2019 03:00:00 22,9 22,8 21 11 N 1020,3 -
15.09.2019 02:00:00 23,1 23,0 24 13 N 1020,8 -
15.09.2019 01:00:00 23,0 22,9 24 13 N 1021,2 -
15.09.2019 00:00:00 22,9 22,8 22 12 NNW 1021,4 -
14.09.2019 23:00:00 22,7 22,6 18 10 N 1021,8 -
14.09.2019 22:00:00 22,2 22,1 16 9 NNW 1021,8 -
14.09.2019 21:00:00 22,4 22,0 16 9 NW 1021,7 -
14.09.2019 20:00:00 22,9 21,8 18 10 NNW 1021,4 -
14.09.2019 19:00:00 24,1 22,1 26 14 N 1021,0 -
14.09.2019 18:00:00 25,6 22,6 24 13 N 1020,8 -
14.09.2019 17:00:00 26,6 23,2 26 14 NNW 1020,8 -
14.09.2019 16:00:00 26,4 23,6 31 17 N 1021,1 -
14.09.2019 15:00:00 26,8 24,4 26 14 N 1021,3 -
14.09.2019 14:00:00 26,9 23,7 24 13 N 1022,0 -
14.09.2019 13:00:00 26,9 24,5 22 12 N 1022,3 -
14.09.2019 12:00:00 26,6 24,2 22 12 N 1022,6 -
14.09.2019 11:00:00 26,1 23,9 22 12 N 1022,5 -
14.09.2019 10:00:00 25,8 23,6 16 9 N 1022,4 -
14.09.2019 09:00:00 23,8 23,7 13 7 NNW 1022,3 -
14.09.2019 08:00:00 21,6 21,5 15 8 NNW 1022,0 -
14.09.2019 07:00:00 20,7 20,6 15 8 NNW 1021,8 -
14.09.2019 06:00:00 21,0 20,9 15 8 NW 1021,7 -
14.09.2019 05:00:00 21,6 21,5 16 9 NNW 1021,7 -
14.09.2019 04:00:00 21,2 21,1 15 8 NW 1021,8 -
14.09.2019 03:00:00 21,8 21,7 11 6 WNW 1022,3 -
14.09.2019 02:00:00 21,7 21,6 11 6 NW 1022,6 -
14.09.2019 01:00:00 23,3 23,2 18 10 NNW 1022,8 -
14.09.2019 00:00:00 23,7 23,6 21 11 NNW 1022,7 -
13.09.2019 23:00:00 23,7 23,6 21 11 N 1022,9 -
13.09.2019 22:00:00 23,4 23,3 21 11 NNW 1023,2 -
13.09.2019 21:00:00 23,5 23,1 18 10 NNW 1022,8 -
13.09.2019 20:00:00 23,7 22,1 18 10 NNW 1022,4 -
13.09.2019 19:00:00 24,6 23,2 26 14 NNW 1022,0 -
13.09.2019 18:00:00 25,9 23,3 31 17 NNW 1021,7 -
13.09.2019 17:00:00 26,8 23,8 31 17 N 1021,4 -
13.09.2019 16:00:00 27,1 24,5 28 15 N 1021,5 -
13.09.2019 15:00:00 27,6 23,8 29 16 NNE 1021,8 -
13.09.2019 14:00:00 27,5 24,7 26 14 NNE 1022,2 -
13.09.2019 13:00:00 27,4 25,0 24 13 NE 1022,5 -
13.09.2019 12:00:00 26,6 24,2 24 13 NE 1022,7 -
13.09.2019 11:00:00 26,2 24,0 22 12 NNE 1023,0 -
13.09.2019 10:00:00 25,8 24,5 22 12 NE 1022,8 -
13.09.2019 09:00:00 25,4 24,1 22 12 NNE 1022,5 -
13.09.2019 08:00:00 24,9 23,3 24 13 NNE 1022,1 -
13.09.2019 07:00:00 24,1 22,7 18 10 N 1022,0 -
13.09.2019 06:00:00 24,4 23,0 22 12 NE 1021,3 -
13.09.2019 05:00:00 24,2 22,8 21 11 N 1021,2 -
13.09.2019 04:00:00 21,9 21,8 11 6 NNW 1021,3 -
13.09.2019 03:00:00 22,2 22,1 13 7 NW 1021,5 -
13.09.2019 02:00:00 22,9 22,8 16 9 NNW 1021,6 -
13.09.2019 01:00:00 23,5 23,4 22 12 NNW 1021,7 -
13.09.2019 00:00:00 23,4 23,3 24 13 N 1021,9 -
12.09.2019 23:00:00 23,4 23,3 26 14 NNW 1022,1 -
12.09.2019 22:00:00 23,1 23,0 21 11 N 1022,3 -
12.09.2019 21:00:00 23,0 22,9 21 11 NNW 1022,4 -
12.09.2019 20:00:00 23,3 23,2 21 11 NNW 1022,0 0,0
12.09.2019 19:00:00 23,9 23,8 24 13 NNW 1021,6 -
12.09.2019 18:00:00 24,7 24,6 24 13 NNW 1021,7 -
12.09.2019 17:00:00 24,8 24,7 28 15 NNW 1021,7 -
12.09.2019 16:00:00 25,8 25,8 28 15 NNE 1021,6 -
12.09.2019 15:00:00 26,1 25,9 28 15 N 1021,8 -
12.09.2019 14:00:00 26,0 26,0 28 15 N 1022,4 -
12.09.2019 13:00:00 26,0 25,7 28 15 N 1022,6 -
12.09.2019 12:00:00 25,8 25,6 29 16 NNE 1022,4 -
12.09.2019 11:00:00 25,6 25,5 29 16 NNW 1022,3 -
12.09.2019 10:00:00 25,2 25,0 26 14 N 1021,9 -
12.09.2019 09:00:00 23,9 23,8 18 10 NNW 1021,3 -
12.09.2019 08:00:00 22,3 22,2 15 8 NNW 1020,8 -
12.09.2019 07:00:00 21,3 21,2 15 8 NNW 1020,6 -
12.09.2019 06:00:00 21,5 21,4 15 8 N 1019,9 -
12.09.2019 05:00:00 21,8 21,7 13 7 NNW 1019,7 -
12.09.2019 04:00:00 21,5 21,4 15 8 NNW 1019,6 -
12.09.2019 03:00:00 21,3 21,2 15 8 NNW 1019,8 -
12.09.2019 02:00:00 21,3 21,2 11 6 NNW 1019,8 -
12.09.2019 01:00:00 21,5 21,4 13 7 NNW 1020,1 -
12.09.2019 00:00:00 21,5 21,4 11 6 NNW 1019,9 -
11.09.2019 23:00:00 21,6 21,5 13 7 NNW 1019,9 -
11.09.2019 22:00:00 21,7 21,6 13 7 NNW 1019,6 -
11.09.2019 21:00:00 21,6 21,5 13 7 NNW 1019,3 -
11.09.2019 20:00:00 22,6 22,5 15 8 NNW 1018,6 -
11.09.2019 19:00:00 23,4 23,3 15 8 NNE 1018,1 -
11.09.2019 18:00:00 24,1 24,0 15 8 N 1017,7 -
11.09.2019 17:00:00 25,2 25,1 11 6 NNE 1017,4 -
11.09.2019 16:00:00 24,6 24,5 8 4 NNE 1017,4 -
11.09.2019 15:00:00 23,3 23,2 8 4 NE 1017,2 -
11.09.2019 14:00:00 21,7 21,6 5 3 NNE 1017,7 -
11.09.2019 13:00:00 20,8 20,7 4 2 ENE 1018,3 -
11.09.2019 12:00:00 19,5 19,4 8 4 S 1018,4 -
11.09.2019 11:00:00 22,1 22,0 13 7 N 1016,5 -
11.09.2019 10:00:00 21,3 21,2 18 10 N 1015,8 -
11.09.2019 09:00:00 21,4 21,3 13 7 NE 1015,6 -
11.09.2019 08:00:00 22,3 22,2 15 8 N 1014,7 -
11.09.2019 07:00:00 21,5 21,4 15 8 NW 1014,5 -
11.09.2019 06:00:00 24,8 24,4 11 6 NNE 1014,0 -
11.09.2019 05:00:00 24,7 23,1 15 8 NNE 1013,4 -
11.09.2019 04:00:00 24,6 23,0 15 8 NNE 1013,4 -
11.09.2019 03:00:00 24,8 23,2 15 8 N 1013,4 -
11.09.2019 02:00:00 24,4 22,8 11 6 N 1013,7 -
11.09.2019 01:00:00 24,4 22,8 11 6 N 1013,5 -
11.09.2019 00:00:00 24,7 23,6 11 6 N 1013,7 -
10.09.2019 23:00:00 24,1 22,5 9 5 N 1013,8 -
10.09.2019 22:00:00 24,6 23,0 9 5 NNE 1013,4 -
10.09.2019 21:00:00 24,4 22,8 11 6 ENE 1013,2 -
10.09.2019 20:00:00 24,6 23,0 11 6 NNE 1012,6 -
10.09.2019 19:00:00 24,7 23,3 11 6 N 1012,8 -
10.09.2019 18:00:00 25,5 24,8 13 7 N 1012,7 -
10.09.2019 17:00:00 26,6 25,0 15 8 NNE 1012,6 -

tt = temperature
td = dewpoint
ff = wind speed
dd = wind direction
ppp = reduced air pressure
rr = precipitation

Next stations